Time;durP1;ratioP1;P1;durP2;ratioP2;P2;SDS_P1;SDS_P2;PMS_P1;PMS_P2;Temp;Humidity;BMP_temperature;BMP_pressure;BME280_temperature;BME280_humidity;BME280_pressure;Samples;Min_cycle;Max_cycle;Signal;HPM_P1;HPM_P2
2024/04/18 00:01:11;;;;;;;0.50;0.40;;;5.60;99.90;;;;;;5424578;26;20718;-83
2024/04/18 00:03:37;;;;;;;0.50;0.43;;;5.60;99.90;;;;;;5423705;26;20816;-83
2024/04/18 00:06:06;;;;;;;0.50;0.40;;;5.50;99.90;;;;;;5423318;26;20217;-83
2024/04/18 00:08:32;;;;;;;0.50;0.40;;;5.50;99.90;;;;;;5423950;26;20292;-83
2024/04/18 00:11:00;;;;;;;0.50;0.43;;;5.50;99.90;;;;;;5423603;26;20224;-83
2024/04/18 00:13:28;;;;;;;0.50;0.40;;;5.40;99.90;;;;;;5423249;26;20216;-83
2024/04/18 00:15:57;;;;;;;0.50;0.40;;;5.40;99.90;;;;;;5423756;26;20591;-83
2024/04/18 00:18:23;;;;;;;1.73;1.58;;;5.50;99.90;;;;;;5424139;26;20619;-83
2024/04/18 00:20:51;;;;;;;0.50;0.50;;;5.50;99.90;;;;;;5423870;26;20213;-83
2024/04/18 00:23:17;;;;;;;0.50;0.40;;;5.50;99.90;;;;;;5423519;26;20321;-83
2024/04/18 00:25:45;;;;;;;0.50;0.47;;;5.50;99.90;;;;;;5423463;26;20228;-83
2024/04/18 00:28:11;;;;;;;0.50;0.40;;;5.50;99.90;;;;;;5423591;26;20244;-83
2024/04/18 00:30:43;;;;;;;0.50;0.40;;;5.50;99.90;;;;;;5423331;26;20310;-83
2024/04/18 00:33:09;;;;;;;0.50;0.50;;;5.50;99.90;;;;;;5423311;26;20759;-83
2024/04/18 00:35:37;;;;;;;0.50;0.40;;;5.60;99.90;;;;;;5423410;26;20703;-83
2024/04/18 00:38:03;;;;;;;0.50;0.50;;;5.60;99.90;;;;;;5423742;26;20568;-83
2024/04/18 00:40:32;;;;;;;0.50;0.47;;;5.50;99.90;;;;;;5423123;26;20221;-83
2024/04/18 00:42:59;;;;;;;0.50;0.40;;;5.60;99.90;;;;;;5422833;26;20552;-83
2024/04/18 00:45:27;;;;;;;0.50;0.47;;;5.60;99.90;;;;;;5422905;26;20247;-83
2024/04/18 00:47:56;;;;;;;0.50;0.40;;;5.60;99.90;;;;;;5422850;26;20292;-83
2024/04/18 00:50:24;;;;;;;0.50;0.50;;;5.60;99.90;;;;;;5422811;26;20807;-83
2024/04/18 00:52:50;;;;;;;0.50;0.40;;;5.60;99.90;;;;;;5422137;26;20826;-83
2024/04/18 00:55:19;;;;;;;0.50;0.50;;;5.60;99.90;;;;;;5422000;26;20220;-83
2024/04/18 00:57:45;;;;;;;0.50;0.50;;;5.60;99.90;;;;;;5421456;26;20549;-81
2024/04/18 01:00:15;;;;;;;0.50;0.50;;;5.60;99.90;;;;;;5421287;26;20217;-83
2024/04/18 01:02:43;;;;;;;0.50;0.40;;;5.60;99.90;;;;;;5420629;26;20451;-82
2024/04/18 01:05:14;;;;;;;0.50;0.40;;;5.60;99.90;;;;;;5420275;26;20232;-82
2024/04/18 01:07:40;;;;;;;0.98;0.98;;;5.60;99.90;;;;;;5420517;26;20288;-82
2024/04/18 01:10:09;;;;;;;0.50;0.40;;;5.60;99.90;;;;;;5421051;26;20321;-82
2024/04/18 01:12:35;;;;;;;0.50;0.40;;;5.60;99.90;;;;;;5423597;26;20260;-83
2024/04/18 01:15:03;;;;;;;0.50;0.40;;;5.60;99.90;;;;;;5424585;26;20649;-83
2024/04/18 01:17:29;;;;;;;0.50;0.40;;;5.60;99.90;;;;;;5423122;26;20237;-83
2024/04/18 01:19:57;;;;;;;0.50;0.40;;;5.50;99.90;;;;;;5423215;26;20290;-83
2024/04/18 01:22:27;;;;;;;0.50;0.40;;;5.50;99.90;;;;;;5423229;26;20622;-83
2024/04/18 01:24:55;;;;;;;0.50;0.40;;;5.40;99.90;;;;;;5422499;26;20217;-83
2024/04/18 01:27:23;;;;;;;0.50;0.47;;;5.40;99.90;;;;;;5423514;26;20286;-83
2024/04/18 01:29:52;;;;;;;0.50;0.40;;;5.30;99.90;;;;;;5422950;26;20595;-83
2024/04/18 01:32:18;;;;;;;0.50;0.40;;;5.30;99.90;;;;;;5423707;26;20275;-83
2024/04/18 01:34:46;;;;;;;0.50;0.40;;;5.30;99.90;;;;;;5423257;26;20290;-83
2024/04/18 01:37:12;;;;;;;0.50;0.40;;;5.30;99.90;;;;;;5422893;26;20746;-83
2024/04/18 01:39:41;;;;;;;0.50;0.40;;;5.20;99.90;;;;;;5423454;26;20317;-83
2024/04/18 01:42:07;;;;;;;0.50;0.50;;;5.10;99.90;;;;;;5422033;26;20251;-83
2024/04/18 01:44:38;;;;;;;0.50;0.40;;;5.10;99.90;;;;;;5423628;26;20217;-83
2024/04/18 01:47:04;;;;;;;0.50;0.40;;;5.20;99.90;;;;;;5422526;26;20256;-83
2024/04/18 01:49:33;;;;;;;0.50;0.40;;;5.20;99.90;;;;;;5422950;26;20317;-83
2024/04/18 01:52:01;;;;;;;0.50;0.40;;;5.20;99.90;;;;;;5423304;26;20771;-83
2024/04/18 01:54:27;;;;;;;0.50;0.50;;;5.10;99.90;;;;;;5425954;26;20651;-83
2024/04/18 01:56:55;;;;;;;0.50;0.40;;;5.20;99.90;;;;;;5426821;26;20286;-83
2024/04/18 01:59:21;;;;;;;0.50;0.40;;;5.20;99.90;;;;;;5426616;26;20329;-83
2024/04/18 02:01:52;;;;;;;0.50;0.40;;;5.20;99.90;;;;;;5426266;26;20216;-83
2024/04/18 02:04:18;;;;;;;0.50;0.40;;;5.20;99.90;;;;;;5425598;26;20502;-83
2024/04/18 02:06:47;;;;;;;0.50;0.50;;;5.20;99.90;;;;;;5426442;26;20321;-83
2024/04/18 02:09:12;;;;;;;0.50;0.40;;;5.20;99.90;;;;;;5426547;26;20342;-83
2024/04/18 02:11:43;;;;;;;0.77;0.77;;;5.30;99.90;;;;;;5426318;26;20236;-83
2024/04/18 02:14:08;;;;;;;0.50;0.40;;;5.30;99.90;;;;;;5426647;26;20808;-83
2024/04/18 02:16:37;;;;;;;0.50;0.40;;;5.20;99.90;;;;;;5426529;26;20228;-83
2024/04/18 02:19:05;;;;;;;0.50;0.45;;;5.20;99.90;;;;;;5425661;26;20583;-83
2024/04/18 02:21:34;;;;;;;0.50;0.40;;;5.10;99.90;;;;;;5426681;26;20259;-83
2024/04/18 02:23:59;;;;;;;0.50;0.40;;;5.10;99.90;;;;;;5427414;26;20216;-83
2024/04/18 02:26:28;;;;;;;0.50;0.40;;;5.20;99.90;;;;;;5442190;26;20303;-81
2024/04/18 02:28:53;;;;;;;0.50;0.40;;;5.20;99.90;;;;;;5441919;26;20224;-81
2024/04/18 02:31:22;;;;;;;0.50;0.40;;;5.20;99.90;;;;;;5441846;26;20491;-82
2024/04/18 02:33:48;;;;;;;0.50;0.40;;;5.20;99.90;;;;;;5441985;26;20213;-81
2024/04/18 02:36:19;;;;;;;0.50;0.40;;;5.20;99.90;;;;;;5441801;26;20217;-83
2024/04/18 02:38:44;;;;;;;0.50;0.40;;;5.20;99.90;;;;;;5440686;26;20229;-83
2024/04/18 02:41:13;;;;;;;0.50;0.40;;;5.30;99.90;;;;;;5425503;26;20878;-83
2024/04/18 02:43:39;;;;;;;0.50;0.40;;;5.30;99.90;;;;;;5425289;26;20518;-84
2024/04/18 02:46:07;;;;;;;0.50;0.40;;;5.30;99.90;;;;;;5426482;26;20321;-83
2024/04/18 02:48:33;;;;;;;0.50;0.40;;;5.30;99.90;;;;;;5425832;26;20270;-83
2024/04/18 02:51:01;;;;;;;0.50;0.40;;;5.30;99.90;;;;;;5426332;26;20216;-83
2024/04/18 02:53:30;;;;;;;0.50;0.40;;;5.30;99.90;;;;;;5431411;26;20228;-83
2024/04/18 02:55:58;;;;;;;0.50;0.40;;;5.20;99.90;;;;;;5426274;26;20220;-83
2024/04/18 02:58:24;;;;;;;0.50;0.50;;;5.30;99.90;;;;;;5425260;26;21093;-84
2024/04/18 03:00:53;;;;;;;0.50;0.40;;;5.30;99.90;;;;;;5428347;26;20216;-83
2024/04/18 03:03:19;;;;;;;0.50;0.40;;;5.30;99.90;;;;;;5426523;26;20447;-83
2024/04/18 03:05:47;;;;;;;0.50;0.40;;;5.40;99.90;;;;;;5426207;26;20294;-84
2024/04/18 03:08:13;;;;;;;0.50;0.40;;;5.40;99.90;;;;;;5425376;26;20414;-83
2024/04/18 03:10:52;;;;;;;0.50;0.40;;;5.50;99.90;;;;;;5425531;26;20224;-83
2024/04/18 03:13:18;;;;;;;0.50;0.50;;;5.40;99.90;;;;;;5425009;26;20208;-83
2024/04/18 03:15:47;;;;;;;0.50;0.40;;;5.40;99.90;;;;;;5424521;26;20255;-83
2024/04/18 03:18:13;;;;;;;0.50;0.40;;;5.50;99.90;;;;;;5424473;26;20593;-83
2024/04/18 03:20:41;;;;;;;0.50;0.40;;;5.50;99.90;;;;;;5424255;26;20699;-83
2024/04/18 03:23:07;;;;;;;0.50;0.40;;;5.50;99.90;;;;;;5424928;26;20313;-83
2024/04/18 03:25:35;;;;;;;0.50;0.40;;;5.40;99.90;;;;;;5424711;26;20625;-82
2024/04/18 03:28:04;;;;;;;0.50;0.40;;;5.40;99.90;;;;;;5424582;26;20310;-83
2024/04/18 03:30:33;;;;;;;0.50;0.40;;;5.40;99.90;;;;;;5424430;26;20325;-83
2024/04/18 03:32:58;;;;;;;0.50;0.40;;;5.30;99.90;;;;;;5424685;26;20220;-83
2024/04/18 03:35:27;;;;;;;0.50;0.40;;;5.40;99.90;;;;;;5424447;26;20213;-83
2024/04/18 03:37:56;;;;;;;0.50;0.40;;;5.30;99.90;;;;;;5424098;26;20222;-83
2024/04/18 03:40:24;;;;;;;0.60;0.60;;;5.30;99.90;;;;;;5424392;26;20228;-83
2024/04/18 03:42:52;;;;;;;0.50;0.40;;;5.30;99.90;;;;;;5424507;26;20324;-83
2024/04/18 03:45:23;;;;;;;0.50;0.40;;;5.30;99.90;;;;;;5424106;26;20257;-83
2024/04/18 03:47:53;;;;;;;0.50;0.40;;;5.20;99.90;;;;;;5424618;26;20225;-83
2024/04/18 03:50:19;;;;;;;0.50;0.40;;;5.10;99.90;;;;;;5424795;26;20282;-83
2024/04/18 03:52:47;;;;;;;0.50;0.50;;;5.00;99.90;;;;;;5425307;26;20228;-83
2024/04/18 03:55:13;;;;;;;0.55;0.55;;;5.00;99.90;;;;;;5424884;26;20561;-83
2024/04/18 03:57:42;;;;;;;0.50;0.50;;;5.00;99.90;;;;;;5424021;26;20236;-83
2024/04/18 04:00:08;;;;;;;0.50;0.50;;;4.90;99.90;;;;;;5424839;26;20533;-83
2024/04/18 04:02:39;;;;;;;0.50;0.50;;;5.00;99.90;;;;;;5424140;26;20213;-83
2024/04/18 04:05:05;;;;;;;0.50;0.40;;;5.00;99.90;;;;;;5424083;26;20213;-83
2024/04/18 04:07:34;;;;;;;0.50;0.40;;;5.10;99.90;;;;;;5424224;26;20221;-83
2024/04/18 04:10:00;;;;;;;0.50;0.50;;;5.10;99.90;;;;;;5424708;26;20317;-82
2024/04/18 04:12:28;;;;;;;0.50;0.40;;;5.10;99.90;;;;;;5423746;26;20228;-83
2024/04/18 04:14:54;;;;;;;0.50;0.40;;;5.20;99.90;;;;;;5422551;26;20298;-83
2024/04/18 04:17:23;;;;;;;0.50;0.40;;;5.20;99.90;;;;;;5423355;26;20242;-83
2024/04/18 04:19:52;;;;;;;0.50;0.40;;;5.20;99.90;;;;;;5424394;26;20263;-83
2024/04/18 04:22:20;;;;;;;0.50;0.40;;;5.20;99.90;;;;;;5426660;26;20290;-83
2024/04/18 04:24:46;;;;;;;0.50;0.40;;;5.20;99.90;;;;;;5426035;26;20268;-83
2024/04/18 04:27:15;;;;;;;0.50;0.47;;;5.20;99.90;;;;;;5426651;26;20317;-83
2024/04/18 04:29:41;;;;;;;0.50;0.40;;;5.20;99.90;;;;;;5425549;26;20294;-84
2024/04/18 04:32:21;;;;;;;0.50;0.40;;;5.20;99.90;;;;;;5424948;26;20541;-83
2024/04/18 04:34:47;;;;;;;0.50;0.50;;;5.10;99.90;;;;;;5424654;26;20310;-83
2024/04/18 04:37:19;;;;;;;0.50;0.50;;;5.10;99.90;;;;;;5425420;26;20209;-84
2024/04/18 04:39:47;;;;;;;0.50;0.40;;;5.00;99.90;;;;;;5424894;26;20651;-83
2024/04/18 04:42:15;;;;;;;0.50;0.47;;;4.90;99.90;;;;;;5425185;26;20213;-83
2024/04/18 04:44:41;;;;;;;0.50;0.50;;;4.80;99.90;;;;;;5424853;26;20224;-83
2024/04/18 04:47:10;;;;;;;0.50;0.40;;;4.70;99.90;;;;;;5424159;26;20274;-83
2024/04/18 04:49:36;;;;;;;0.50;0.40;;;4.70;99.90;;;;;;5423720;26;20251;-84
2024/04/18 04:52:05;;;;;;;0.50;0.50;;;4.80;99.90;;;;;;5424128;26;20567;-84
2024/04/18 04:54:34;;;;;;;0.50;0.50;;;4.80;99.90;;;;;;5424123;26;20317;-83
2024/04/18 04:57:02;;;;;;;0.50;0.40;;;4.90;99.90;;;;;;5424105;26;20251;-84
2024/04/18 04:59:28;;;;;;;0.50;0.40;;;4.90;99.90;;;;;;5424187;26;20259;-84
2024/04/18 05:01:57;;;;;;;0.50;0.50;;;4.90;99.90;;;;;;5423880;26;20217;-84
2024/04/18 05:04:22;;;;;;;0.50;0.40;;;5.00;99.90;;;;;;5423055;26;20287;-83
2024/04/18 05:06:51;;;;;;;1.73;1.63;;;5.00;99.90;;;;;;5423982;26;20317;-83
2024/04/18 05:09:19;;;;;;;0.50;0.40;;;5.00;99.90;;;;;;5417901;26;20232;-84
2024/04/18 05:11:50;;;;;;;0.50;0.50;;;5.00;99.90;;;;;;5396101;26;20276;-84
2024/04/18 05:14:16;;;;;;;0.50;0.50;;;5.00;99.90;;;;;;5401829;26;20241;-84
2024/04/18 05:16:44;;;;;;;0.50;0.50;;;5.10;99.90;;;;;;5423443;26;20228;-85
2024/04/18 05:19:10;;;;;;;0.50;0.50;;;5.20;99.90;;;;;;5423394;26;20288;-85
2024/04/18 05:21:38;;;;;;;0.50;0.40;;;5.20;99.90;;;;;;5398617;26;20392;-84
2024/04/18 05:24:05;;;;;;;0.50;0.40;;;5.20;99.90;;;;;;5419981;26;20561;-83
2024/04/18 05:26:34;;;;;;;0.50;0.40;;;5.20;99.90;;;;;;5421687;26;20255;-84
2024/04/18 05:31:50;;;;;;;0.50;0.50;;;5.20;99.90;;;;;;5425019;26;20329;-84
2024/04/18 05:34:16;;;;;;;0.50;0.40;;;5.30;99.90;;;;;;5416528;26;20221;-83
2024/04/18 05:36:46;;;;;;;0.50;0.50;;;5.30;99.90;;;;;;5435406;26;20221;-84
2024/04/18 05:39:14;;;;;;;0.50;0.40;;;5.30;99.90;;;;;;5435875;26;20362;-83
2024/04/18 05:41:43;;;;;;;0.50;0.40;;;5.40;99.90;;;;;;5435252;26;20247;-84
2024/04/18 05:44:14;;;;;;;0.50;0.50;;;5.40;99.90;;;;;;5425689;26;20216;-84
2024/04/18 05:46:42;;;;;;;0.50;0.50;;;5.40;99.90;;;;;;5425931;26;20342;-83
2024/04/18 05:49:11;;;;;;;0.50;0.40;;;5.50;99.90;;;;;;5431549;26;20314;-83
2024/04/18 05:51:39;;;;;;;0.50;0.40;;;5.50;99.90;;;;;;5431454;26;20294;-83
2024/04/18 05:54:08;;;;;;;0.50;0.40;;;5.50;99.90;;;;;;5432530;26;20216;-83
2024/04/18 05:56:34;;;;;;;0.50;0.50;;;5.50;99.90;;;;;;5427941;26;20208;-83
2024/04/18 05:59:03;;;;;;;0.50;0.40;;;5.60;99.90;;;;;;5428358;26;20271;-82
2024/04/18 06:01:34;;;;;;;0.50;0.40;;;5.60;99.90;;;;;;5429887;26;20568;-83
2024/04/18 06:04:03;;;;;;;0.50;0.40;;;5.60;99.90;;;;;;5429037;26;20287;-84
2024/04/18 06:06:33;;;;;;;0.50;0.40;;;5.60;99.90;;;;;;5428981;26;20264;-82
2024/04/18 06:09:01;;;;;;;0.50;0.50;;;5.60;99.90;;;;;;5431488;26;20323;-82
2024/04/18 06:11:35;;;;;;;0.50;0.50;;;5.60;99.90;;;;;;5432096;26;20240;-83
2024/04/18 06:14:04;;;;;;;0.50;0.50;;;5.60;99.90;;;;;;5432459;26;20257;-82
2024/04/18 06:16:36;;;;;;;0.50;0.40;;;5.60;99.90;;;;;;5436496;26;20260;-81
2024/04/18 06:19:05;;;;;;;0.50;0.40;;;5.60;99.90;;;;;;5435435;26;20236;-82
2024/04/18 06:21:33;;;;;;;0.50;0.40;;;5.60;99.90;;;;;;5437109;26;20287;-81
2024/04/18 06:24:01;;;;;;;0.50;0.40;;;5.60;99.90;;;;;;5438373;26;20209;-81
2024/04/18 06:26:30;;;;;;;0.50;0.40;;;5.60;99.90;;;;;;5436234;26;20217;-84
2024/04/18 06:28:58;;;;;;;0.50;0.40;;;5.60;99.90;;;;;;5424935;26;20326;-83
2024/04/18 06:31:27;;;;;;;0.50;0.43;;;5.60;99.90;;;;;;5424676;26;20221;-83
2024/04/18 06:33:58;;;;;;;0.50;0.40;;;5.60;99.90;;;;;;5423859;26;20220;-83
2024/04/18 06:36:26;;;;;;;0.50;0.50;;;5.80;99.90;;;;;;5424318;26;20213;-83
2024/04/18 06:38:54;;;;;;;0.50;0.50;;;5.90;99.90;;;;;;5427819;26;20344;-83
2024/04/18 06:41:23;;;;;;;0.50;0.40;;;6.10;99.90;;;;;;5428071;26;20304;-83
2024/04/18 06:43:51;;;;;;;0.50;0.40;;;6.20;99.90;;;;;;5428190;26;20256;-83
2024/04/18 06:46:20;;;;;;;0.50;0.40;;;6.40;99.90;;;;;;5427629;26;20225;-83
2024/04/18 06:48:48;;;;;;;0.50;0.40;;;6.50;99.90;;;;;;5427324;26;20236;-83
2024/04/18 06:51:19;;;;;;;0.50;0.40;;;6.60;99.90;;;;;;5427062;26;20834;-83
2024/04/18 06:53:47;;;;;;;0.50;0.40;;;6.70;99.90;;;;;;5427913;26;20216;-84
2024/04/18 06:56:16;;;;;;;0.50;0.40;;;6.80;99.90;;;;;;5427028;26;20268;-83
2024/04/18 06:58:46;;;;;;;0.50;0.40;;;6.90;99.90;;;;;;5427876;26;20264;-83
2024/04/18 07:01:14;;;;;;;0.50;0.47;;;7.00;99.90;;;;;;5428085;26;20209;-83
2024/04/18 07:03:43;;;;;;;0.50;0.40;;;7.10;99.90;;;;;;5427444;26;20225;-83
2024/04/18 07:06:11;;;;;;;0.60;0.60;;;7.40;99.90;;;;;;5426985;26;20336;-84
2024/04/18 07:08:42;;;;;;;0.50;0.40;;;8.20;99.90;;;;;;5426921;26;20225;-83
2024/04/18 07:11:10;;;;;;;0.50;0.40;;;8.40;99.90;;;;;;5426709;26;20225;-83
2024/04/18 07:13:39;;;;;;;0.50;0.50;;;9.00;99.90;;;;;;5426317;26;20216;-84
2024/04/18 07:16:07;;;;;;;0.50;0.40;;;9.10;99.90;;;;;;5427481;26;20217;-83
2024/04/18 07:18:34;;;;;;;0.50;0.40;;;9.00;99.90;;;;;;5426844;26;20410;-83
2024/04/18 07:21:02;;;;;;;0.50;0.40;;;8.80;99.90;;;;;;5429691;26;20236;-83
2024/04/18 07:23:30;;;;;;;0.50;0.40;;;8.60;99.90;;;;;;5426769;26;20443;-83
2024/04/18 07:26:01;;;;;;;0.50;0.40;;;8.40;99.90;;;;;;5426010;26;20287;-83
2024/04/18 07:28:30;;;;;;;0.50;0.40;;;8.20;99.90;;;;;;5428359;26;20285;-83
2024/04/18 07:30:58;;;;;;;0.50;0.40;;;8.20;99.90;;;;;;5429184;26;20217;-83
2024/04/18 07:33:27;;;;;;;0.50;0.40;;;8.10;99.90;;;;;;5430063;26;20221;-83
2024/04/18 07:35:56;;;;;;;0.50;0.40;;;8.10;99.90;;;;;;5428186;26;20205;-83
2024/04/18 07:38:24;;;;;;;0.50;0.40;;;8.20;99.90;;;;;;5427187;26;20328;-84
2024/04/18 07:40:53;;;;;;;0.50;0.40;;;8.30;99.90;;;;;;5428121;26;20260;-84
2024/04/18 07:43:24;;;;;;;0.50;0.50;;;8.50;99.90;;;;;;5429271;26;20264;-84
2024/04/18 07:45:52;;;;;;;0.50;0.40;;;9.40;99.90;;;;;;5426061;26;20296;-86
2024/04/18 07:48:21;;;;;;;0.50;0.40;;;10.50;99.90;;;;;;5422684;26;20324;-86
2024/04/18 07:50:49;;;;;;;0.50;0.40;;;12.70;99.90;;;;;;5427852;26;21241;-86
2024/04/18 07:53:18;;;;;;;0.50;0.40;;;14.10;99.90;;;;;;5413605;26;20469;-86
2024/04/18 07:55:46;;;;;;;0.50;0.40;;;14.50;99.90;;;;;;5427918;26;20517;-86
2024/04/18 07:58:15;;;;;;;0.50;0.40;;;15.20;99.90;;;;;;5428214;26;20557;-85
2024/04/18 08:00:46;;;;;;;0.50;0.40;;;17.00;99.90;;;;;;5427903;26;20461;-85
2024/04/18 08:03:14;;;;;;;1.33;1.23;;;17.60;99.90;;;;;;5428117;26;20523;-85
2024/04/18 08:05:43;;;;;;;0.50;0.40;;;18.30;99.90;;;;;;5427448;26;20457;-84
2024/04/18 08:08:11;;;;;;;0.50;0.40;;;18.20;99.90;;;;;;5428005;26;20554;-83
2024/04/18 08:10:40;;;;;;;0.50;0.40;;;18.20;99.90;;;;;;5428187;26;20521;-82
2024/04/18 08:13:09;;;;;;;0.50;0.30;;;18.70;99.90;;;;;;5427811;26;20563;-83
2024/04/18 08:15:40;;;;;;;0.50;0.40;;;19.10;99.90;;;;;;5428488;26;20450;-85
2024/04/18 08:18:12;;;;;;;0.50;0.40;;;19.50;96.30;;;;;;5426366;26;21107;-84
2024/04/18 08:20:40;;;;;;;0.73;0.73;;;19.30;93.50;;;;;;5427800;26;20438;-85
2024/04/18 08:23:08;;;;;;;0.50;0.30;;;19.60;94.60;;;;;;5426991;26;20525;-85
2024/04/18 08:25:37;;;;;;;1.17;0.80;;;19.60;91.90;;;;;;5428094;26;20535;-84
2024/04/18 08:28:06;;;;;;;0.50;0.40;;;20.00;92.70;;;;;;5426962;26;20470;-84
2024/04/18 08:30:34;;;;;;;0.50;0.30;;;19.50;93.10;;;;;;5426755;26;20510;-83
2024/04/18 08:33:03;;;;;;;0.50;0.30;;;19.40;94.40;;;;;;5427003;26;20567;-84
2024/04/18 08:35:34;;;;;;;0.50;0.40;;;20.30;94.00;;;;;;5427597;26;20439;-84
2024/04/18 08:38:02;;;;;;;0.50;0.40;;;20.40;86.00;;;;;;5427238;26;20590;-84
2024/04/18 08:40:31;;;;;;;0.50;0.40;;;20.00;82.60;;;;;;5427399;26;20502;-83
2024/04/18 08:42:59;;;;;;;0.50;0.30;;;20.20;84.30;;;;;;5426218;26;20502;-82
2024/04/18 08:45:33;;;;;;;0.50;0.40;;;20.30;86.60;;;;;;5427859;26;20593;-83
2024/04/18 08:48:02;;;;;;;0.50;0.40;;;20.60;85.10;;;;;;5427701;26;20466;-83
2024/04/18 08:50:34;;;;;;;0.50;0.40;;;20.60;88.10;;;;;;5429678;26;20454;-82
2024/04/18 08:53:05;;;;;;;0.50;0.40;;;19.20;81.90;;;;;;5427056;26;20504;-86
2024/04/18 08:55:35;;;;;;;0.50;0.40;;;18.90;85.50;;;;;;5425950;26;20462;-84
2024/04/18 08:58:07;;;;;;;0.50;0.30;;;19.00;87.80;;;;;;5422147;26;20872;-84
2024/04/18 09:00:35;;;;;;;0.50;0.40;;;19.60;87.30;;;;;;5422465;26;20446;-84
2024/04/18 09:03:04;;;;;;;0.50;0.40;;;20.10;88.30;;;;;;5420732;26;20447;-84
2024/04/18 09:05:36;;;;;;;0.50;0.40;;;20.20;77.70;;;;;;5422682;26;20533;-84
2024/04/18 09:08:04;;;;;;;0.50;0.30;;;21.00;83.80;;;;;;5422779;26;20467;-84
2024/04/18 09:10:33;;;;;;;0.50;0.30;;;21.60;83.50;;;;;;5422899;26;20551;-84
2024/04/18 09:13:01;;;;;;;1.27;1.27;;;21.90;80.10;;;;;;5422400;26;20472;-84
2024/04/18 09:15:30;;;;;;;0.50;0.40;;;22.40;76.00;;;;;;5422526;26;20560;-84
2024/04/18 09:18:02;;;;;;;0.50;0.40;;;22.40;71.80;;;;;;5423232;26;20465;-84
2024/04/18 09:20:32;;;;;;;0.50;0.30;;;21.10;75.70;;;;;;5422142;26;20507;-85
2024/04/18 09:23:03;;;;;;;0.50;0.40;;;20.80;74.30;;;;;;5422896;26;20499;-84
2024/04/18 09:25:33;;;;;;;0.50;0.30;;;20.30;73.60;;;;;;5423300;26;20462;-85
2024/04/18 09:28:01;;;;;;;0.50;0.40;;;20.40;72.00;;;;;;5424429;26;20523;-84
2024/04/18 09:30:30;;;;;;;0.50;0.30;;;19.60;73.10;;;;;;5425783;26;20585;-84
2024/04/18 09:33:00;;;;;;;0.60;0.53;;;18.40;76.60;;;;;;5424335;26;20460;-84
2024/04/18 09:35:32;;;;;;;0.50;0.40;;;17.30;75.70;;;;;;5423810;26;20537;-84
2024/04/18 09:38:03;;;;;;;0.50;0.40;;;16.30;82.20;;;;;;5423157;26;20462;-84
2024/04/18 09:40:37;;;;;;;0.50;0.40;;;15.70;82.20;;;;;;5423127;26;20883;-85
2024/04/18 09:43:18;;;;;;;0.50;0.40;;;15.10;86.30;;;;;;5423041;26;21114;-82
2024/04/18 09:45:52;;;;;;;0.50;0.40;;;14.60;85.60;;;;;;5423168;26;20466;-83
2024/04/18 09:48:21;;;;;;;0.50;0.40;;;14.50;88.50;;;;;;5422779;26;20467;-82
2024/04/18 09:50:51;;;;;;;0.50;0.40;;;14.50;92.40;;;;;;5423043;26;20469;-84
2024/04/18 09:53:23;;;;;;;0.50;0.40;;;15.70;92.90;;;;;;5423076;26;20550;-82
2024/04/18 09:55:52;;;;;;;0.50;0.40;;;17.60;86.90;;;;;;5423871;26;20569;-83
2024/04/18 09:58:22;;;;;;;0.50;0.30;;;19.30;87.10;;;;;;5423249;26;20526;-83
2024/04/18 10:00:51;;;;;;;0.50;0.30;;;20.40;72.00;;;;;;5422562;26;20602;-83
2024/04/18 10:03:17;;;;;;;0.50;0.30;;;20.60;72.50;;;;;;5422150;26;20454;-83
2024/04/18 10:05:49;;;;;;;0.50;0.40;;;20.10;70.10;;;;;;5422110;26;20446;-84
2024/04/18 10:08:22;;;;;;;0.50;0.30;;;19.10;65.60;;;;;;5421675;26;20572;-85
2024/04/18 10:10:52;;;;;;;0.50;0.40;;;18.20;74.50;;;;;;5421695;26;20602;-83
2024/04/18 10:13:24;;;;;;;0.50;0.40;;;17.50;72.40;;;;;;5423884;26;20567;-83
2024/04/18 10:15:52;;;;;;;0.50;0.40;;;17.20;70.20;;;;;;5426087;26;20561;-84
2024/04/18 10:18:21;;;;;;;0.50;0.40;;;17.30;73.70;;;;;;5425183;26;20467;-84
2024/04/18 10:20:49;;;;;;;0.50;0.40;;;17.30;75.40;;;;;;5427718;26;20463;-83
2024/04/18 10:23:18;;;;;;;0.50;0.40;;;17.70;69.70;;;;;;5429748;26;20504;-84
2024/04/18 10:25:49;;;;;;;0.50;0.40;;;18.00;71.60;;;;;;5430392;26;20445;-84
2024/04/18 10:28:22;;;;;;;0.50;0.40;;;18.60;70.40;;;;;;5429787;26;20480;-84
2024/04/18 10:30:50;;;;;;;0.50;0.30;;;19.40;72.30;;;;;;5430444;26;20510;-84
2024/04/18 10:33:19;;;;;;;0.50;0.30;;;20.60;67.80;;;;;;5429295;26;20596;-84
2024/04/18 10:35:48;;;;;;;0.50;0.30;;;21.70;67.20;;;;;;5425290;26;20924;-82
2024/04/18 10:38:26;;;;;;;0.50;0.40;;;22.30;61.80;;;;;;5423597;26;20460;-83
2024/04/18 10:41:08;;;;;;;0.50;0.30;;;22.30;59.30;;;;;;5423574;26;20445;-85
2024/04/18 10:43:38;;;;;;;0.50;0.30;;;22.70;57.60;;;;;;5424734;26;20527;-85
2024/04/18 10:46:08;;;;;;;0.50;0.40;;;22.60;59.90;;;;;;5426246;26;20461;-85
2024/04/18 10:48:37;;;;;;;0.50;0.30;;;23.20;57.60;;;;;;5425959;26;20544;-84
2024/04/18 10:51:06;;;;;;;0.50;0.40;;;23.60;59.60;;;;;;5425859;26;20473;-83
2024/04/18 10:53:33;;;;;;;0.50;0.40;;;22.20;57.50;;;;;;5425636;26;20451;-84
2024/04/18 10:56:02;;;;;;;0.50;0.40;;;21.00;58.80;;;;;;5426219;26;20445;-82
2024/04/18 10:58:33;;;;;;;0.50;0.40;;;19.80;58.40;;;;;;5424767;26;20957;-83
2024/04/18 11:01:03;;;;;;;0.50;0.40;;;19.60;60.70;;;;;;5426479;26;20454;-82
2024/04/18 11:03:32;;;;;;;0.80;0.63;;;18.70;64.00;;;;;;5426543;26;20585;-82
2024/04/18 11:06:02;;;;;;;0.50;0.40;;;17.70;65.20;;;;;;5422364;26;20503;-84
2024/04/18 11:08:31;;;;;;;0.50;0.40;;;16.80;67.80;;;;;;5423939;26;20487;-81
2024/04/18 11:10:59;;;;;;;0.50;0.40;;;16.90;72.70;;;;;;5422205;26;20530;-81
2024/04/18 11:13:28;;;;;;;0.50;0.37;;;17.70;66.00;;;;;;5423235;26;20505;-82
2024/04/18 11:15:59;;;;;;;0.50;0.30;;;19.00;65.20;;;;;;5424397;26;20498;-83
2024/04/18 11:18:28;;;;;;;0.50;0.30;;;20.10;63.00;;;;;;5422217;26;20463;-83
2024/04/18 11:20:56;;;;;;;0.50;0.37;;;20.70;63.20;;;;;;5421028;26;20450;-83
2024/04/18 11:23:26;;;;;;;0.50;0.30;;;20.80;59.20;;;;;;5419747;26;20514;-83
2024/04/18 11:25:55;;;;;;;0.50;0.30;;;21.40;64.60;;;;;;5418409;26;20442;-82
2024/04/18 11:28:24;;;;;;;0.50;0.33;;;21.60;59.10;;;;;;5419310;26;20503;-83
2024/04/18 11:30:52;;;;;;;0.50;0.30;;;21.10;60.20;;;;;;5420513;26;20568;-82
2024/04/18 11:33:24;;;;;;;0.50;0.30;;;20.70;57.60;;;;;;5424940;26;20442;-82
2024/04/18 11:35:50;;;;;;;0.50;0.40;;;21.00;57.10;;;;;;5426604;26;20545;-84
2024/04/18 11:38:19;;;;;;;0.50;0.40;;;21.50;58.80;;;;;;5434884;26;20464;-84
2024/04/18 11:40:47;;;;;;;0.50;0.30;;;21.00;59.40;;;;;;5429812;26;20581;-84
2024/04/18 11:43:15;;;;;;;0.50;0.30;;;19.90;59.90;;;;;;5424482;26;20570;-84
2024/04/18 11:45:44;;;;;;;0.50;0.40;;;18.70;59.00;;;;;;5427120;26;20470;-83
2024/04/18 11:48:12;;;;;;;0.50;0.33;;;17.90;59.90;;;;;;5427969;26;20585;-83
2024/04/18 11:50:43;;;;;;;1.87;1.77;;;18.20;58.40;;;;;;5429075;26;20520;-83
2024/04/18 11:53:12;;;;;;;0.50;0.40;;;18.10;59.50;;;;;;5426750;26;20499;-85
2024/04/18 11:55:40;;;;;;;0.50;0.40;;;19.00;59.20;;;;;;5423599;26;20538;-83
2024/04/18 11:58:09;;;;;;;0.50;0.40;;;19.40;58.80;;;;;;5424709;26;20458;-84
2024/04/18 12:00:37;;;;;;;0.50;0.40;;;19.70;63.50;;;;;;5425768;26;20446;-83
2024/04/18 12:03:06;;;;;;;1.53;1.43;;;20.00;58.90;;;;;;5423655;26;20505;-83
2024/04/18 12:05:35;;;;;;;0.50;0.30;;;19.10;58.10;;;;;;5424174;26;20786;-84
2024/04/18 12:08:07;;;;;;;0.50;0.30;;;18.00;59.10;;;;;;5427031;26;20450;-81
2024/04/18 12:10:35;;;;;;;0.50;0.40;;;17.20;63.10;;;;;;5440135;26;20545;-83
2024/04/18 12:13:04;;;;;;;0.50;0.30;;;17.80;66.40;;;;;;5434477;26;20561;-84
2024/04/18 12:15:33;;;;;;;0.50;0.30;;;18.60;65.00;;;;;;5425447;26;20533;-84
2024/04/18 12:18:02;;;;;;;0.50;0.40;;;18.10;63.60;;;;;;5425726;26;20462;-83
2024/04/18 12:20:31;;;;;;;0.50;0.40;;;17.30;62.90;;;;;;5424426;26;20531;-83
2024/04/18 12:22:59;;;;;;;0.50;0.40;;;16.80;60.50;;;;;;5423389;26;20447;-83
2024/04/18 12:25:31;;;;;;;0.50;0.40;;;16.20;63.20;;;;;;5424284;26;20825;-82
2024/04/18 12:27:59;;;;;;;0.50;0.40;;;15.80;69.20;;;;;;5423649;26;20563;-84
2024/04/18 12:30:27;;;;;;;0.50;0.40;;;15.50;68.40;;;;;;5424164;26;20563;-83
2024/04/18 12:32:53;;;;;;;0.50;0.40;;;15.40;69.30;;;;;;5423363;26;20459;-83
2024/04/18 12:35:22;;;;;;;0.50;0.50;;;15.40;68.70;;;;;;5423491;26;20537;-82
2024/04/18 12:37:50;;;;;;;0.50;0.40;;;15.20;67.80;;;;;;5423555;26;20787;-82
2024/04/18 12:40:18;;;;;;;0.50;0.40;;;15.60;73.00;;;;;;5424389;26;20562;-83
2024/04/18 12:42:50;;;;;;;0.50;0.40;;;16.90;66.50;;;;;;5423276;26;20461;-84
2024/04/18 12:45:19;;;;;;;0.50;0.30;;;18.60;68.40;;;;;;5424540;26;20455;-84
2024/04/18 12:47:49;;;;;;;0.50;0.30;;;19.80;59.80;;;;;;5424282;26;20575;-83
2024/04/18 12:50:17;;;;;;;0.50;0.40;;;20.80;57.40;;;;;;5423843;26;20525;-84
2024/04/18 12:52:47;;;;;;;0.50;0.30;;;21.40;56.40;;;;;;5422925;26;20567;-83
2024/04/18 12:55:16;;;;;;;0.50;0.37;;;21.80;58.40;;;;;;5422381;26;20461;-84
2024/04/18 12:57:44;;;;;;;0.50;0.40;;;22.10;56.40;;;;;;5423576;26;20474;-83
2024/04/18 13:00:16;;;;;;;0.50;0.40;;;22.60;53.90;;;;;;5421828;26;20454;-83
2024/04/18 13:02:45;;;;;;;0.50;0.30;;;22.80;53.10;;;;;;5421030;26;20471;-82